Time;durP1;ratioP1;P1;durP2;ratioP2;P2;SDS_P1;SDS_P2;PMS_P1;PMS_P2;Temp;Humidity;BMP_temperature;BMP_pressure;BME280_temperature;BME280_humidity;BME280_pressure;Samples;Min_cycle;Max_cycle;Signal;HPM_P1;HPM_P2
2022/05/02 00:01:30;;;;;;;17.60;11.30;;;;;;;6.31;50.15;100483.18;130386;1267;108935;-76
2022/05/02 00:04:36;;;;;;;16.60;11.20;;;;;;;6.28;50.20;100484.05;130514;1267;108692;-77
2022/05/02 00:07:41;;;;;;;16.30;11.40;;;;;;;6.26;50.39;100482.63;130425;1267;108781;-76
2022/05/02 00:10:47;;;;;;;17.20;11.50;;;;;;;6.22;50.29;100483.27;130429;1267;108820;-77
2022/05/02 00:13:52;;;;;;;20.40;12.50;;;;;;;6.12;51.54;100485.48;130406;1267;108848;-76
2022/05/02 00:16:58;;;;;;;26.60;15.60;;;;;;;5.90;51.50;100484.85;130345;1266;108663;-75
2022/05/02 00:20:04;;;;;;;21.80;13.50;;;;;;;5.85;51.30;100485.60;130391;1267;107999;-77
2022/05/02 00:23:11;;;;;;;22.60;13.10;;;;;;;5.87;51.31;100486.85;130496;1266;108893;-76
2022/05/02 00:26:17;;;;;;;20.90;13.90;;;;;;;5.89;51.27;100486.71;130416;1267;108869;-77
2022/05/02 00:29:23;;;;;;;23.10;13.60;;;;;;;5.89;51.31;100489.53;130366;1267;108794;-77
2022/05/02 00:32:28;;;;;;;19.90;13.60;;;;;;;5.88;51.33;100483.74;130397;1267;108629;-76
2022/05/02 00:35:34;;;;;;;25.80;14.40;;;;;;;5.88;51.45;100484.62;130374;1266;109640;-76
2022/05/02 00:38:39;;;;;;;21.10;13.60;;;;;;;5.87;51.44;100488.24;130407;1267;107029;-76
2022/05/02 00:41:45;;;;;;;20.90;13.60;;;;;;;5.85;51.60;100487.02;130379;1267;108396;-76
2022/05/02 00:44:51;;;;;;;23.00;13.40;;;;;;;5.82;51.53;100488.62;130344;1267;108552;-79
2022/05/02 00:47:58;;;;;;;22.80;14.30;;;;;;;5.80;51.78;100490.38;130451;1264;109323;-77
2022/05/02 00:51:04;;;;;;;23.60;14.30;;;;;;;5.76;51.60;100492.45;130521;1267;108922;-77
2022/05/02 00:54:10;;;;;;;25.30;14.80;;;;;;;5.73;51.78;100499.23;130440;1267;108711;-77
2022/05/02 00:57:16;;;;;;;27.30;16.00;;;;;;;5.68;51.82;100502.21;130506;1265;107982;-72
2022/05/02 01:00:22;;;;;;;27.30;16.20;;;;;;;5.66;51.95;100502.73;130523;1267;108787;-80
2022/05/02 01:03:28;;;;;;;34.60;19.80;;;;;;;5.62;51.92;100498.07;130384;1266;108979;-80
2022/05/02 01:09:57;;;;;;;33.40;18.20;;;;;;;5.57;52.19;100497.59;130402;1267;109188;-80
2022/05/02 01:13:03;;;;;;;32.00;17.90;;;;;;;5.54;52.18;100498.02;130558;1267;108851;-79
2022/05/02 01:16:14;;;;;;;28.90;17.50;;;;;;;5.48;52.44;100496.59;130470;1267;107742;-79
2022/05/02 01:19:20;;;;;;;34.90;19.70;;;;;;;5.44;52.41;100495.55;130424;1267;108903;-80
2022/05/02 01:22:25;;;;;;;31.60;18.30;;;;;;;5.35;52.61;100493.90;130427;1267;108705;-78
2022/05/02 01:25:31;;;;;;;33.90;18.40;;;;;;;5.29;53.00;100497.00;130414;1266;108732;-80
2022/05/02 01:28:43;;;;;;;32.90;19.20;;;;;;;5.18;52.82;100497.33;130473;1266;107716;-79
2022/05/02 01:31:48;;;;;;;38.00;18.90;;;;;;;5.08;53.39;100498.32;130628;1267;108968;-80
2022/05/02 01:34:54;;;;;;;33.30;19.70;;;;;;;5.06;53.14;100495.88;131814;1267;108750;-81
2022/05/02 01:37:59;;;;;;;36.00;20.40;;;;;;;5.06;52.90;100497.80;130585;1267;108827;-84
2022/05/02 01:41:05;;;;;;;37.30;20.70;;;;;;;5.03;53.09;100497.80;130372;1266;108859;-78
2022/05/02 01:44:11;;;;;;;43.30;22.90;;;;;;;5.03;53.15;100495.35;130391;1267;108973;-79
2022/05/02 01:47:16;;;;;;;45.20;23.30;;;;;;;5.01;53.12;100499.58;130412;1267;108708;-77
2022/05/02 01:50:22;;;;;;;40.30;22.00;;;;;;;4.93;53.27;100500.67;130372;1267;108766;-78
2022/05/02 01:53:27;;;;;;;39.10;21.40;;;;;;;4.91;53.47;100505.09;130401;1267;109090;-77
2022/05/02 01:56:33;;;;;;;37.30;20.60;;;;;;;4.91;53.39;100508.06;130464;1267;109116;-77
2022/05/02 01:59:38;;;;;;;36.90;21.00;;;;;;;4.88;53.47;100500.33;130541;1267;107717;-77
2022/05/02 02:02:44;;;;;;;34.60;20.20;;;;;;;4.88;53.59;100499.13;130480;1267;108741;-77
2022/05/02 02:06:04;;;;;;;33.00;19.90;;;;;;;4.88;53.57;100494.48;130389;1267;109511;-76
2022/05/02 02:09:09;;;;;;;32.60;19.70;;;;;;;4.88;53.43;100492.76;130367;1267;108705;-75
2022/05/02 02:12:15;;;;;;;30.80;19.00;;;;;;;4.84;53.64;100493.77;130354;1267;108754;-78
2022/05/02 02:15:20;;;;;;;32.20;17.70;;;;;;;4.81;53.69;100491.69;130427;1267;109117;-77
2022/05/02 02:18:26;;;;;;;28.80;16.50;;;;;;;4.80;53.72;100488.42;130400;1267;109029;-78
2022/05/02 02:21:33;;;;;;;26.80;16.60;;;;;;;4.77;53.73;100487.91;130392;1267;108948;-78
2022/05/02 02:24:38;;;;;;;28.00;16.30;;;;;;;4.74;53.76;100485.48;130396;1267;109492;-79
2022/05/02 02:27:44;;;;;;;27.50;17.30;;;;;;;4.71;53.74;100480.75;130425;1267;108844;-78
2022/05/02 02:30:49;;;;;;;26.70;17.00;;;;;;;4.69;53.73;100473.78;130327;1267;108155;-79
2022/05/02 02:33:55;;;;;;;30.60;17.20;;;;;;;4.67;53.80;100474.00;130484;1267;108941;-79
2022/05/02 02:37:00;;;;;;;28.30;16.90;;;;;;;4.60;53.67;100470.98;130571;1267;107695;-80
2022/05/02 02:40:09;;;;;;;29.70;18.60;;;;;;;4.51;54.06;100470.53;130592;1267;107522;-79
2022/05/02 02:43:15;;;;;;;28.90;18.50;;;;;;;4.50;54.03;100479.77;130423;1266;108732;-81
2022/05/02 02:46:20;;;;;;;29.30;18.40;;;;;;;4.46;54.10;100480.21;131010;1267;108587;-77
2022/05/02 02:49:26;;;;;;;30.80;18.10;;;;;;;4.45;54.29;100481.89;130851;1267;109106;-84
2022/05/02 02:52:31;;;;;;;27.40;17.50;;;;;;;4.45;54.34;100482.10;130663;1267;107750;-85
2022/05/02 02:55:37;;;;;;;28.20;17.70;;;;;;;4.46;54.44;100486.91;130782;1267;109226;-86
2022/05/02 02:58:43;;;;;;;27.90;16.90;;;;;;;4.49;54.50;100487.95;130678;1267;108649;-86
2022/05/02 03:01:48;;;;;;;27.10;17.00;;;;;;;4.44;54.46;100495.86;130688;1267;108984;-82
2022/05/02 03:08:18;;;;;;;30.70;17.50;;;;;;;4.36;54.88;100502.96;130443;1268;108720;-81
2022/05/02 03:11:23;;;;;;;24.70;16.80;;;;;;;4.37;54.76;100497.81;131026;1267;108959;-80
2022/05/02 03:14:29;;;;;;;32.60;18.60;;;;;;;4.37;54.67;100497.08;130878;1267;108914;-82
2022/05/02 03:17:34;;;;;;;31.60;19.00;;;;;;;4.38;54.79;100495.45;130636;1267;107564;-73
2022/05/02 03:20:40;;;;;;;31.30;19.80;;;;;;;4.39;54.76;100491.45;130369;1267;108578;-76
2022/05/02 03:23:45;;;;;;;34.10;20.30;;;;;;;4.41;54.96;100492.58;130358;1267;108697;-75
2022/05/02 03:26:51;;;;;;;28.70;17.70;;;;;;;4.43;54.76;100489.44;130367;1267;108650;-75
2022/05/02 03:29:56;;;;;;;31.90;19.00;;;;;;;4.46;54.94;100494.20;130383;1267;108700;-74
2022/05/02 03:33:02;;;;;;;29.20;18.00;;;;;;;4.47;54.90;100491.40;130444;1267;108736;-72
2022/05/02 03:36:09;;;;;;;29.10;18.20;;;;;;;4.48;55.07;100492.24;130456;1267;108637;-73
2022/05/02 03:39:14;;;;;;;26.50;17.60;;;;;;;4.50;54.99;100484.00;130362;1267;108907;-73
2022/05/02 03:42:19;;;;;;;28.30;17.80;;;;;;;4.52;54.99;100487.73;130399;1267;108729;-73
2022/05/02 03:45:26;;;;;;;27.30;18.60;;;;;;;4.58;55.06;100486.09;130383;1267;107586;-73
2022/05/02 03:48:31;;;;;;;31.30;19.50;;;;;;;4.66;55.06;100486.90;130406;1267;108626;-74
2022/05/02 03:51:37;;;;;;;33.00;21.50;;;;;;;4.80;55.01;100488.71;130483;1267;108601;-74
2022/05/02 03:54:42;;;;;;;30.90;19.90;;;;;;;4.95;55.22;100484.69;130393;1267;108656;-73
2022/05/02 03:57:48;;;;;;;30.90;20.70;;;;;;;5.11;55.22;100481.95;130387;1267;108792;-74
2022/05/02 04:00:53;;;;;;;32.10;20.40;;;;;;;5.28;55.23;100483.14;130335;1267;108682;-73
2022/05/02 04:03:59;;;;;;;30.80;20.70;;;;;;;5.46;55.26;100480.20;130422;1267;108726;-74
2022/05/02 04:07:05;;;;;;;32.00;19.90;;;;;;;5.64;55.30;100482.19;130405;1267;108665;-75
2022/05/02 04:10:11;;;;;;;29.70;20.30;;;;;;;5.81;55.23;100478.48;130401;1267;108988;-75
2022/05/02 04:13:16;;;;;;;37.00;23.10;;;;;;;5.94;55.20;100477.85;130385;1267;108710;-76
2022/05/02 04:16:22;;;;;;;36.50;23.50;;;;;;;6.07;55.26;100481.66;130401;1267;108879;-77
2022/05/02 04:19:27;;;;;;;34.50;22.10;;;;;;;6.22;55.36;100483.85;130368;1267;107759;-76
2022/05/02 04:22:33;;;;;;;31.60;20.40;;;;;;;6.37;55.31;100481.64;130412;1267;108606;-75
2022/05/02 04:25:39;;;;;;;26.80;19.10;;;;;;;6.49;55.40;100479.95;130420;1267;108816;-75
2022/05/02 04:28:44;;;;;;;29.30;19.40;;;;;;;6.64;55.42;100485.09;130377;1267;108603;-77
2022/05/02 04:31:50;;;;;;;31.50;20.40;;;;;;;6.81;55.73;100487.85;130353;1267;108562;-73
2022/05/02 04:34:58;;;;;;;29.20;19.50;;;;;;;7.04;55.38;100494.70;130295;1267;108870;-73
2022/05/02 04:38:03;;;;;;;26.80;18.50;;;;;;;7.14;55.55;100493.19;130387;1267;108675;-72
2022/05/02 04:41:13;;;;;;;26.10;18.70;;;;;;;7.25;55.97;100497.91;130398;1267;108611;-74
2022/05/02 04:44:19;;;;;;;24.80;18.30;;;;;;;7.39;56.56;100499.30;130485;1267;108865;-73
2022/05/02 04:47:24;;;;;;;25.10;16.30;;;;;;;7.55;56.26;100498.12;130547;1267;106741;-72
2022/05/02 04:50:30;;;;;;;26.90;16.80;;;;;;;7.76;56.72;100500.10;130495;1267;108770;-70
2022/05/02 04:53:35;;;;;;;27.40;18.40;;;;;;;7.97;56.87;100502.21;130295;1267;108682;-72
2022/05/02 04:56:41;;;;;;;26.10;18.00;;;;;;;8.29;57.00;100499.82;130322;1267;108850;-73
2022/05/02 04:59:46;;;;;;;29.90;18.70;;;;;;;8.67;56.63;100501.71;130396;1267;106969;-74
2022/05/02 05:02:52;;;;;;;29.80;19.30;;;;;;;9.01;56.69;100499.97;130439;1267;108966;-75
2022/05/02 05:05:57;;;;;;;25.70;19.00;;;;;;;9.34;56.60;100501.63;130502;1267;108690;-75
2022/05/02 05:09:03;;;;;;;25.50;18.70;;;;;;;9.58;56.60;100494.79;130440;1267;108736;-75
2022/05/02 05:12:23;;;;;;;28.70;19.20;;;;;;;9.82;56.71;100489.61;130491;1267;108707;-73
2022/05/02 05:19:25;;;;;;;25.50;18.20;;;;;;;10.34;56.53;100484.92;130423;1267;108793;-75
2022/05/02 05:22:45;;;;;;;29.50;19.60;;;;;;;10.57;56.58;100479.73;130439;1267;108839;-75
2022/05/02 05:26:05;;;;;;;24.40;18.50;;;;;;;10.77;56.41;100478.02;130457;1267;108829;-74
2022/05/02 05:29:20;;;;;;;29.90;19.50;;;;;;;10.98;56.44;100478.08;130462;1267;107588;-75
2022/05/02 05:32:35;;;;;;;25.60;17.80;;;;;;;11.13;56.30;100480.67;130323;1267;108844;-75
2022/05/02 05:35:55;;;;;;;29.80;18.10;;;;;;;11.26;56.06;100481.71;130370;1267;107579;-77
2022/05/02 05:39:05;;;;;;;25.50;16.30;;;;;;;11.41;56.17;100474.34;130447;1267;108800;-75
2022/05/02 05:42:17;;;;;;;23.80;15.50;;;;;;;11.54;56.45;100469.90;130347;1267;108977;-76
2022/05/02 05:45:33;;;;;;;21.30;14.80;;;;;;;11.66;55.71;100469.77;130417;1266;108778;-73
2022/05/02 05:48:50;;;;;;;18.50;13.20;;;;;;;11.77;55.70;100472.66;130447;1267;108834;-73
2022/05/02 05:52:08;;;;;;;19.30;13.30;;;;;;;11.89;55.85;100464.05;130434;1268;108696;-74
2022/05/02 05:55:22;;;;;;;17.50;13.10;;;;;;;12.00;55.54;100466.17;130361;1267;108876;-74
2022/05/02 05:58:36;;;;;;;19.20;14.30;;;;;;;12.07;55.47;100461.83;130420;1268;108811;-76
2022/05/02 06:02:02;;;;;;;22.00;14.80;;;;;;;12.16;55.36;100463.98;130367;1267;108673;-77
2022/05/02 06:05:09;;;;;;;19.70;14.90;;;;;;;12.25;55.18;100462.14;130343;1267;108877;-75
2022/05/02 06:08:19;;;;;;;23.90;16.10;;;;;;;12.29;55.44;100460.99;130368;1266;108910;-75
2022/05/02 06:11:27;;;;;;;21.60;15.50;;;;;;;12.37;55.20;100464.45;130328;1267;108707;-75
2022/05/02 06:18:27;;;;;;;24.70;15.50;;;;;;;12.50;55.00;100462.80;130414;1267;108789;-75
2022/05/02 06:21:32;;;;;;;19.20;14.70;;;;;;;12.91;55.12;100458.66;130379;1267;109082;-74
2022/05/02 06:24:44;;;;;;;18.20;14.10;;;;;;;13.11;54.96;100462.96;130361;1268;108745;-74
2022/05/02 06:27:50;;;;;;;16.80;13.90;;;;;;;13.31;54.84;100459.70;130393;1267;107578;-78
2022/05/02 06:31:00;;;;;;;17.20;14.00;;;;;;;13.45;54.67;100454.29;130449;1267;108847;-76
2022/05/02 06:34:07;;;;;;;19.40;13.70;;;;;;;13.57;54.45;100450.34;130445;1269;106688;-78
2022/05/02 06:37:32;;;;;;;17.90;13.40;;;;;;;13.66;54.47;100448.30;130510;1266;108552;-79
2022/05/02 06:40:45;;;;;;;17.90;13.60;;;;;;;13.72;54.27;100447.63;130592;1266;107046;-78
2022/05/02 06:44:01;;;;;;;17.90;13.10;;;;;;;13.78;54.08;100448.95;130558;1267;108792;-76
2022/05/02 06:47:16;;;;;;;16.00;12.30;;;;;;;13.90;53.94;100450.63;130594;1267;108650;-76
2022/05/02 06:50:26;;;;;;;15.30;12.10;;;;;;;14.10;53.80;100449.44;130249;1268;108782;-77
2022/05/02 06:53:56;;;;;;;17.10;12.60;;;;;;;14.28;53.18;100450.13;130400;1267;108665;-79
2022/05/02 06:57:11;;;;;;;19.10;12.40;;;;;;;14.39;53.32;100449.29;130259;1268;109846;-78
2022/05/02 07:00:20;;;;;;;13.80;11.20;;;;;;;14.48;53.24;100447.84;130322;1267;108905;-81
2022/05/02 07:03:59;;;;;;;13.10;10.00;;;;;;;14.57;52.78;100448.77;130354;1268;108684;-78
2022/05/02 07:07:16;;;;;;;14.20;11.50;;;;;;;14.66;52.44;100451.29;130355;1267;107725;-76
2022/05/02 07:10:24;;;;;;;13.60;10.30;;;;;;;14.71;51.98;100450.73;130368;1268;107653;-77
2022/05/02 07:13:44;;;;;;;13.70;10.20;;;;;;;14.73;52.27;100446.85;130345;1268;108846;-78
2022/05/02 07:16:54;;;;;;;17.10;10.60;;;;;;;14.72;51.72;100453.31;130642;1267;108990;-79
2022/05/02 07:20:05;;;;;;;15.40;10.90;;;;;;;14.70;51.82;100453.14;130576;1267;108992;-79
2022/05/02 07:23:26;;;;;;;13.30;10.30;;;;;;;14.73;51.84;100451.72;130419;1268;107680;-77
2022/05/02 07:26:34;;;;;;;12.30;10.10;;;;;;;14.84;51.77;100445.25;130330;1268;108636;-80
2022/05/02 07:29:43;;;;;;;14.80;10.70;;;;;;;15.00;51.82;100442.14;130365;1268;108795;-75
2022/05/02 07:32:48;;;;;;;13.60;10.30;;;;;;;15.18;51.45;100440.48;130349;1268;108681;-76
2022/05/02 07:35:56;;;;;;;12.90;9.70;;;;;;;15.36;51.30;100440.15;130298;1268;108737;-78
2022/05/02 07:39:05;;;;;;;13.30;10.20;;;;;;;15.57;50.34;100437.68;130341;1268;108763;-76
2022/05/02 07:42:13;;;;;;;12.90;9.10;;;;;;;15.80;49.96;100436.80;130302;1268;108727;-79
2022/05/02 07:45:21;;;;;;;13.30;9.70;;;;;;;16.09;50.37;100434.63;130309;1268;108739;-77
2022/05/02 07:48:27;;;;;;;13.40;9.50;;;;;;;16.44;50.31;100434.53;130302;1268;108904;-78
2022/05/02 07:51:33;;;;;;;19.10;9.60;;;;;;;16.84;50.37;100430.69;130348;1268;107725;-78
2022/05/02 07:54:43;;;;;;;12.20;9.60;;;;;;;17.24;50.23;100430.02;130367;1268;108890;-76
2022/05/02 07:57:49;;;;;;;12.60;8.80;;;;;;;17.63;49.70;100423.27;130413;1268;109271;-76
2022/05/02 08:00:54;;;;;;;10.50;7.40;;;;;;;17.87;48.59;100420.48;130386;1268;108828;-77
2022/05/02 08:04:00;;;;;;;10.20;7.20;;;;;;;18.01;48.73;100425.48;130159;1267;222196;-76
2022/05/02 08:07:13;;;;;;;11.60;8.00;;;;;;;18.13;47.79;100423.90;130291;1268;109022;-76
2022/05/02 08:10:42;;;;;;;9.80;6.90;;;;;;;18.22;48.00;100426.16;130359;1268;108840;-76
2022/05/02 08:14:01;;;;;;;9.60;7.30;;;;;;;18.35;47.12;100426.23;130326;1267;108677;-75
2022/05/02 08:17:15;;;;;;;9.80;7.50;;;;;;;18.47;47.15;100423.40;130283;1268;108684;-77
2022/05/02 08:20:32;;;;;;;20.20;12.50;;;;;;;18.45;46.27;100426.70;130335;1267;107675;-78
2022/05/02 08:27:48;;;;;;;7.90;5.90;;;;;;;18.19;44.88;100423.64;130223;1268;108707;-78
2022/05/02 08:31:08;;;;;;;9.40;6.00;;;;;;;18.21;44.61;100421.98;130356;1268;108687;-78
2022/05/02 08:34:25;;;;;;;8.70;6.50;;;;;;;18.21;44.51;100418.46;130365;1268;108526;-79
2022/05/02 08:37:55;;;;;;;8.40;5.60;;;;;;;18.30;45.17;100417.17;130465;1267;108671;-78
2022/05/02 08:41:47;;;;;;;8.10;6.50;;;;;;;18.48;44.78;100413.70;130464;1268;108663;-78
2022/05/02 08:45:29;;;;;;;7.80;5.80;;;;;;;18.74;44.55;100413.58;130278;1268;108883;-78
2022/05/02 08:53:16;;;;;;;8.70;6.50;;;;;;;19.07;43.90;100397.52;130146;1268;108040;-79
2022/05/02 08:56:39;;;;;;;10.80;7.00;;;;;;;19.20;43.34;100396.83;130293;1268;108760;-77
2022/05/02 09:00:06;;;;;;;10.50;5.80;;;;;;;19.18;43.25;100395.79;130339;1267;108798;-77
2022/05/02 09:03:57;;;;;;;8.70;6.60;;;;;;;19.13;41.43;100395.33;130170;1267;108691;-77
2022/05/02 09:07:47;;;;;;;12.10;7.50;;;;;;;18.96;41.89;100388.10;129623;1274;108665;-77
2022/05/02 09:11:31;;;;;;;9.50;6.10;;;;;;;18.91;42.60;100386.46;130023;1267;107734;-77
2022/05/02 09:15:09;;;;;;;7.40;5.80;;;;;;;18.92;42.85;100380.96;130365;1267;108814;-77
2022/05/02 09:18:39;;;;;;;8.60;6.30;;;;;;;18.85;40.85;100384.91;130380;1267;107761;-77
2022/05/02 09:22:17;;;;;;;8.10;6.00;;;;;;;18.71;38.71;100380.77;130342;1267;108843;-77
2022/05/02 09:25:36;;;;;;;8.10;5.50;;;;;;;18.64;40.96;100374.52;130364;1267;108906;-77
2022/05/02 09:28:57;;;;;;;6.80;5.40;;;;;;;18.77;41.64;100375.23;130328;1267;108843;-77
2022/05/02 09:32:17;;;;;;;10.00;5.90;;;;;;;18.94;41.71;100372.33;130339;1267;108767;-77
2022/05/02 09:35:33;;;;;;;7.70;5.80;;;;;;;19.12;41.81;100368.17;130369;1267;108934;-79
2022/05/02 09:38:51;;;;;;;7.80;5.40;;;;;;;19.27;41.54;100364.49;130376;1267;108948;-78
2022/05/02 09:42:19;;;;;;;7.40;5.70;;;;;;;19.31;41.16;100360.95;130338;1267;108715;-78
2022/05/02 09:52:53;;;;;;;8.00;5.70;;;;;;;19.12;40.78;100364.74;130315;1267;108635;-77
2022/05/02 09:59:26;;;;;;;7.80;5.40;;;;;;;19.19;40.73;100362.92;130324;1267;108751;-77
2022/05/02 10:02:42;;;;;;;8.70;5.40;;;;;;;19.23;40.44;100359.05;130494;1267;108794;-79
2022/05/02 10:05:54;;;;;;;7.20;5.70;;;;;;;19.22;40.36;100356.84;130498;1267;108635;-78
2022/05/02 10:09:01;;;;;;;;;;;;;;;19.16;39.33;100352.67;130599;1267;108628;-79
2022/05/02 10:12:13;;;;;;;8.00;5.90;;;;;;;19.04;39.97;100348.71;130491;1267;108671;-78
2022/05/02 10:15:35;;;;;;;10.50;6.10;;;;;;;18.82;38.22;100349.20;130443;1267;108709;-78
2022/05/02 10:18:50;;;;;;;9.10;6.20;;;;;;;18.45;38.07;100346.88;130391;1267;109021;-77
2022/05/02 10:22:19;;;;;;;8.40;6.00;;;;;;;18.19;38.74;100344.07;130420;1267;108979;-76
2022/05/02 10:25:36;;;;;;;15.50;11.30;;;;;;;18.13;39.06;100335.29;130541;1267;108858;-77
2022/05/02 10:29:18;;;;;;;8.70;6.90;;;;;;;18.13;39.25;100330.76;130371;1267;109663;-77
2022/05/02 10:32:27;;;;;;;;;;;;;;;18.13;39.04;100326.30;130091;1267;107445;-77
2022/05/02 10:35:33;;;;;;;10.30;6.60;;;;;;;18.18;38.82;100322.42;130367;1267;108692;-78
2022/05/02 10:38:51;;;;;;;7.60;5.80;;;;;;;18.25;39.31;100314.93;130453;1267;108681;-77
2022/05/02 10:42:02;;;;;;;18.70;13.70;;;;;;;18.34;38.62;100311.81;130311;1267;107436;-77
2022/05/02 10:45:10;;;;;;;8.60;6.30;;;;;;;18.37;37.37;100314.10;130332;1267;107852;-77
2022/05/02 10:48:34;;;;;;;7.30;5.00;;;;;;;18.32;38.46;100305.35;130341;1267;108975;-77
2022/05/02 10:51:55;;;;;;;7.70;6.00;;;;;;;18.25;37.68;100302.97;130384;1267;108678;-76
2022/05/02 10:55:06;;;;;;;9.80;5.70;;;;;;;18.14;38.01;100302.05;130356;1267;108662;-76
2022/05/02 10:58:13;;;;;;;8.80;5.20;;;;;;;18.14;38.31;100296.48;130404;1267;108952;-77
2022/05/02 11:01:33;;;;;;;7.20;5.10;;;;;;;18.31;38.33;100298.30;130478;1267;108848;-76
2022/05/02 11:05:04;;;;;;;9.60;7.00;;;;;;;18.51;37.97;100293.77;130325;1266;108821;-77
2022/05/02 11:08:12;;;;;;;5.80;4.50;;;;;;;18.64;37.98;100296.13;130364;1267;108777;-77
2022/05/02 11:11:27;;;;;;;7.10;4.80;;;;;;;18.67;37.64;100294.89;130362;1266;107716;-77
2022/05/02 11:14:46;;;;;;;4.60;4.10;;;;;;;18.67;37.44;100289.40;130368;1267;108743;-78
2022/05/02 11:18:07;;;;;;;5.70;3.80;;;;;;;18.72;37.66;100290.19;130444;1266;108856;-78
2022/05/02 11:21:31;;;;;;;7.30;5.50;;;;;;;18.85;38.07;100286.88;130442;1267;109040;-78
2022/05/02 11:24:52;;;;;;;7.60;5.00;;;;;;;18.95;37.90;100278.98;130549;1267;108904;-77
2022/05/02 11:28:09;;;;;;;7.10;6.00;;;;;;;19.08;37.93;100281.55;130469;1266;108278;-77
2022/05/02 11:31:23;;;;;;;7.60;5.60;;;;;;;19.22;37.60;100278.80;130470;1267;107816;-78
2022/05/02 11:34:47;;;;;;;12.50;7.90;;;;;;;19.30;37.07;100277.77;130404;1267;108735;-78
2022/05/02 11:38:01;;;;;;;8.10;5.60;;;;;;;19.21;36.15;100277.10;130356;1267;109033;-77
2022/05/02 11:41:16;;;;;;;5.50;4.90;;;;;;;19.15;37.12;100277.98;130319;1267;108941;-77
2022/05/02 11:44:32;;;;;;;5.30;4.80;;;;;;;19.07;37.22;100275.70;130342;1267;108723;-77
2022/05/02 11:48:04;;;;;;;21.30;12.60;;;;;;;18.99;37.29;100274.85;130371;1267;108832;-77
2022/05/02 11:51:21;;;;;;;11.40;6.80;;;;;;;18.88;36.72;100277.23;130366;1267;108711;-78
2022/05/02 11:54:36;;;;;;;13.90;9.30;;;;;;;18.68;36.80;100275.48;130401;1266;107705;-77
2022/05/02 11:57:51;;;;;;;11.80;7.70;;;;;;;18.59;37.39;100271.58;130350;1267;108859;-77
2022/05/02 12:01:02;;;;;;;12.20;7.10;;;;;;;18.58;37.67;100266.84;130303;1267;108676;-77
2022/05/02 12:04:10;;;;;;;50.80;22.50;;;;;;;18.58;37.68;100265.07;130385;1267;108806;-77
2022/05/02 12:07:22;;;;;;;14.00;10.10;;;;;;;18.55;36.46;100261.83;130365;1267;108562;-77
2022/05/02 12:10:36;;;;;;;;;;;;;;;18.54;37.09;100257.83;130402;1267;108975;-77
2022/05/02 12:13:45;;;;;;;9.20;5.70;;;;;;;18.65;37.37;100253.14;130515;1267;108927;-77
2022/05/02 12:20:28;;;;;;;7.30;5.80;;;;;;;19.13;36.69;100243.19;125900;1310;636534;-76
2022/05/02 12:23:36;;;;;;;7.50;5.10;;;;;;;19.16;36.60;100237.62;129288;1281;108187;-77
2022/05/02 12:26:51;;;;;;;8.50;7.50;;;;;;;19.14;36.12;100233.91;129540;1277;108716;-77
2022/05/02 12:30:01;;;;;;;11.20;9.00;;;;;;;19.01;36.35;100235.01;129742;1276;108887;-77
2022/05/02 12:33:08;;;;;;;7.70;5.80;;;;;;;18.90;36.38;100232.09;129796;1274;206833;-78
2022/05/02 12:36:16;;;;;;;7.30;5.20;;;;;;;18.81;36.42;100231.01;129941;1274;108667;-79
2022/05/02 12:39:27;;;;;;;7.00;4.90;;;;;;;18.72;35.48;100231.98;130113;1274;108596;-76
2022/05/02 12:42:39;;;;;;;8.10;4.80;;;;;;;18.61;36.02;100231.67;130166;1274;108653;-78
2022/05/02 12:45:47;;;;;;;6.40;5.60;;;;;;;18.60;36.31;100228.34;130159;1274;108664;-78
2022/05/02 12:49:01;;;;;;;7.30;5.60;;;;;;;18.60;35.88;100228.60;130259;1274;108199;-79
2022/05/02 12:52:07;;;;;;;6.20;4.70;;;;;;;18.61;36.45;100222.95;130341;1274;108837;-77
2022/05/02 12:55:14;;;;;;;6.60;4.90;;;;;;;18.64;36.36;100217.34;129971;1274;108815;-77
2022/05/02 13:01:45;;;;;;;7.70;4.70;;;;;;;18.64;36.36;100215.81;130049;1274;107699;-77
2022/05/02 13:04:51;;;;;;;9.20;5.10;;;;;;;18.65;36.62;100212.89;130068;1274;108071;-77
2022/05/02 13:07:57;;;;;;;7.40;4.80;;;;;;;18.70;36.27;100209.98;130005;1274;108566;-79
2022/05/02 13:11:09;;;;;;;6.70;5.00;;;;;;;18.86;36.72;100205.42;130044;1274;108737;-77
2022/05/02 13:14:25;;;;;;;5.80;4.60;;;;;;;19.15;36.88;100203.66;130095;1274;108821;-77
2022/05/02 13:17:32;;;;;;;7.00;5.10;;;;;;;19.44;36.96;100202.52;130056;1274;108845;-77
2022/05/02 13:20:38;;;;;;;9.40;7.40;;;;;;;19.67;36.26;100197.80;129900;1274;108737;-77
2022/05/02 13:23:46;;;;;;;7.40;6.00;;;;;;;19.72;34.38;100194.19;129682;1274;107729;-77
2022/05/02 13:27:12;;;;;;;14.70;9.30;;;;;;;19.68;35.47;100189.19;129946;1274;108956;-77
2022/05/02 13:30:21;;;;;;;11.40;7.10;;;;;;;19.80;35.85;100185.49;129867;1274;108706;-77
2022/05/02 13:33:36;;;;;;;8.90;5.80;;;;;;;19.99;35.50;100185.70;129765;1274;108841;-77
2022/05/02 13:36:44;;;;;;;6.90;5.20;;;;;;;20.06;34.99;100178.30;129851;1274;108864;-79
2022/05/02 13:40:04;;;;;;;6.70;4.90;;;;;;;20.08;35.99;100179.39;129857;1274;106842;-79
2022/05/02 13:43:18;;;;;;;5.80;4.70;;;;;;;20.15;35.42;100176.66;129982;1274;107682;-79
2022/05/02 13:46:34;;;;;;;6.10;4.60;;;;;;;20.24;35.50;100172.76;129915;1274;108754;-79
2022/05/02 13:50:01;;;;;;;7.80;4.70;;;;;;;20.31;35.37;100170.62;130084;1274;108850;-79
2022/05/02 13:53:21;;;;;;;5.70;4.90;;;;;;;20.34;35.06;100158.67;130164;1274;107672;-79
2022/05/02 13:56:36;;;;;;;5.40;4.70;;;;;;;20.32;35.05;100145.55;130257;1274;108836;-79
2022/05/02 13:59:57;;;;;;;5.10;4.40;;;;;;;20.36;35.13;100143.29;130185;1274;108643;-79
2022/05/02 14:03:23;;;;;;;8.80;6.10;;;;;;;20.44;34.56;100141.17;130082;1274;108735;-79
2022/05/02 14:06:35;;;;;;;6.10;4.80;;;;;;;20.53;35.08;100133.80;130087;1274;108937;-79
2022/05/02 14:09:49;;;;;;;6.80;4.70;;;;;;;20.66;35.09;100129.43;130017;1274;108834;-79
2022/05/02 14:12:56;;;;;;;9.00;6.40;;;;;;;20.71;34.10;100133.59;129968;1274;108667;-79
2022/05/02 14:16:08;;;;;;;6.30;4.60;;;;;;;20.59;33.88;100133.68;129952;1274;108758;-79
2022/05/02 14:19:22;;;;;;;5.40;4.60;;;;;;;20.54;34.61;100132.49;129990;1274;108649;-77
2022/05/02 14:22:37;;;;;;;9.10;6.30;;;;;;;20.44;32.81;100133.63;129867;1274;108695;-78
2022/05/02 14:25:44;;;;;;;8.70;4.70;;;;;;;20.30;32.23;100134.90;129880;1274;108710;-77
2022/05/02 14:28:52;;;;;;;9.40;7.50;;;;;;;20.16;32.80;100132.34;129923;1274;107803;-77
2022/05/02 14:32:07;;;;;;;11.50;10.00;;;;;;;20.20;33.24;100128.05;129877;1274;108158;-79
2022/05/02 14:35:21;;;;;;;9.40;8.40;;;;;;;20.16;32.23;100129.88;129827;1274;107760;-77
2022/05/02 14:38:28;;;;;;;6.70;5.30;;;;;;;20.19;32.77;100127.45;130563;1265;108730;-78
2022/05/02 14:41:38;;;;;;;4.90;4.40;;;;;;;20.19;32.66;100124.37;130698;1265;108673;-78
2022/05/02 14:44:46;;;;;;;5.50;4.10;;;;;;;20.25;33.13;100118.27;130938;1268;108684;-78
2022/05/02 14:47:52;;;;;;;8.00;5.90;;;;;;;20.28;32.88;100109.23;130937;1267;108690;-78
2022/05/02 14:51:05;;;;;;;9.40;5.10;;;;;;;20.15;32.73;100104.39;130833;1268;108819;-77
2022/05/02 14:54:12;;;;;;;5.20;4.10;;;;;;;19.93;32.94;100109.48;130730;1266;109028;-77
2022/05/02 14:57:22;;;;;;;4.80;4.10;;;;;;;19.76;33.35;100102.29;130841;1268;107844;-76
2022/05/02 15:00:30;;;;;;;5.30;3.90;;;;;;;19.66;33.33;100098.45;130725;1267;108692;-78
2022/05/02 15:03:40;;;;;;;5.00;4.30;;;;;;;19.53;33.21;100098.52;130897;1267;108729;-78
2022/05/02 15:06:51;;;;;;;4.50;4.00;;;;;;;19.43;33.63;100097.86;131078;1268;108873;-78